Time;durP1;ratioP1;P1;durP2;ratioP2;P2;SDS_P1;SDS_P2;PMS_P1;PMS_P2;Temp;Humidity;BMP_temperature;BMP_pressure;BME280_temperature;BME280_humidity;BME280_pressure;Samples;Min_cycle;Max_cycle;Signal;HPM_P1;HPM_P2
2023/01/02 00:01:04;;;;;;;10.32;4.18;;;13.70;99.90;;;;;;5055262;28;20198;-68
2023/01/02 00:03:30;;;;;;;8.80;4.28;;;13.70;99.90;;;;;;5055411;28;20198;-68
2023/01/02 00:05:56;;;;;;;7.43;4.30;;;13.80;99.90;;;;;;5055469;28;20232;-68
2023/01/02 00:08:22;;;;;;;8.30;4.03;;;13.70;99.90;;;;;;5055489;28;20645;-68
2023/01/02 00:10:48;;;;;;;11.88;3.83;;;13.60;99.90;;;;;;5037263;28;20242;-68
2023/01/02 00:13:14;;;;;;;13.45;4.93;;;13.70;99.90;;;;;;5055358;28;20240;-68
2023/01/02 00:15:40;;;;;;;9.85;4.45;;;13.70;99.90;;;;;;5055105;28;20178;-68
2023/01/02 00:18:06;;;;;;;5.63;4.22;;;13.80;99.90;;;;;;5055159;28;20163;-68
2023/01/02 00:20:32;;;;;;;9.98;3.92;;;13.90;99.90;;;;;;5055002;28;20186;-68
2023/01/02 00:22:58;;;;;;;10.52;3.90;;;13.90;99.90;;;;;;5054488;28;20205;-68
2023/01/02 00:25:24;;;;;;;14.00;4.20;;;14.00;99.90;;;;;;5054710;28;20210;-68
2023/01/02 00:27:49;;;;;;;8.68;4.10;;;14.20;99.90;;;;;;5055223;28;20179;-68
2023/01/02 00:30:15;;;;;;;8.00;4.07;;;14.30;99.90;;;;;;5054889;28;20194;-68
2023/01/02 00:32:41;;;;;;;8.40;3.70;;;14.30;99.90;;;;;;5055164;28;20198;-68
2023/01/02 00:35:07;;;;;;;6.47;3.70;;;14.40;99.90;;;;;;5054833;28;20265;-68
2023/01/02 00:37:33;;;;;;;6.90;4.10;;;14.50;99.90;;;;;;5054586;28;20201;-68
2023/01/02 00:39:58;;;;;;;10.93;4.53;;;14.50;99.90;;;;;;5054786;28;20198;-68
2023/01/02 00:42:24;;;;;;;10.73;4.05;;;14.60;99.90;;;;;;5054606;28;20170;-68
2023/01/02 00:44:50;;;;;;;12.05;4.72;;;14.50;99.90;;;;;;5055114;28;20596;-68
2023/01/02 00:47:16;;;;;;;11.93;4.03;;;14.40;99.90;;;;;;5054506;28;20178;-68
2023/01/02 00:49:41;;;;;;;11.90;4.53;;;14.40;99.90;;;;;;5054429;28;20194;-68
2023/01/02 00:52:07;;;;;;;10.48;4.28;;;14.60;99.90;;;;;;5054228;28;20178;-68
2023/01/02 00:54:33;;;;;;;9.48;4.03;;;14.60;99.90;;;;;;5036652;28;20619;-69
2023/01/02 00:56:58;;;;;;;10.35;4.38;;;14.50;99.90;;;;;;5054407;28;20201;-67
2023/01/02 00:59:24;;;;;;;7.25;3.97;;;14.40;99.90;;;;;;5053832;28;20198;-67
2023/01/02 01:01:50;;;;;;;5.38;3.67;;;14.30;99.90;;;;;;5036027;28;20205;-68
2023/01/02 01:04:16;;;;;;;10.65;4.75;;;14.30;99.90;;;;;;5054131;28;20174;-68
2023/01/02 01:06:41;;;;;;;8.48;4.25;;;14.30;99.90;;;;;;5036246;28;20222;-68
2023/01/02 01:09:07;;;;;;;6.97;3.58;;;14.20;99.90;;;;;;5054075;28;20247;-68
2023/01/02 01:11:33;;;;;;;10.90;3.95;;;14.20;99.90;;;;;;5054142;28;20296;-68
2023/01/02 01:13:59;;;;;;;8.40;4.05;;;14.20;99.90;;;;;;5054245;28;20263;-68
2023/01/02 01:16:25;;;;;;;12.82;4.43;;;14.10;99.90;;;;;;5054244;28;20174;-68
2023/01/02 01:18:57;;;;;;;9.23;4.20;;;14.00;99.90;;;;;;5036664;28;20181;-68
2023/01/02 01:21:23;;;;;;;13.07;4.22;;;14.00;99.90;;;;;;5054656;28;20158;-68
2023/01/02 01:23:50;;;;;;;11.77;3.85;;;14.00;99.90;;;;;;5054322;28;20186;-68
2023/01/02 01:26:16;;;;;;;8.57;3.85;;;14.00;99.90;;;;;;5054687;28;20185;-68
2023/01/02 01:28:42;;;;;;;9.55;4.07;;;13.90;99.90;;;;;;5054303;28;20170;-68
2023/01/02 01:31:10;;;;;;;11.18;4.30;;;14.00;99.90;;;;;;5054260;28;20281;-68
2023/01/02 01:33:37;;;;;;;4.80;3.95;;;13.90;99.90;;;;;;5054178;28;20582;-68
2023/01/02 01:36:21;;;;;;;10.15;3.90;;;13.90;99.90;;;;;;5054161;28;20229;-68
2023/01/02 01:38:47;;;;;;;9.48;4.03;;;13.90;99.90;;;;;;5054513;28;20182;-68
2023/01/02 01:41:21;;;;;;;10.82;4.63;;;13.80;99.90;;;;;;5054518;28;20250;-68
2023/01/02 01:43:56;;;;;;;7.22;3.90;;;13.90;99.90;;;;;;5054871;28;20166;-68
2023/01/02 01:46:26;;;;;;;11.32;4.10;;;13.90;99.90;;;;;;5054632;28;20158;-68
2023/01/02 01:49:16;;;;;;;15.15;4.68;;;13.90;99.90;;;;;;5055026;28;20162;-68
2023/01/02 01:51:56;;;;;;;9.07;3.83;;;13.90;99.90;;;;;;5054331;28;20158;-68
2023/01/02 01:54:48;;;;;;;7.28;4.40;;;13.90;99.90;;;;;;5054113;28;20190;-68
2023/01/02 01:57:19;;;;;;;9.73;4.40;;;14.00;99.90;;;;;;5003209;28;20198;-68
2023/01/02 01:59:46;;;;;;;10.20;4.35;;;14.00;99.90;;;;;;5053437;28;20190;-67
2023/01/02 02:02:12;;;;;;;13.02;4.10;;;14.10;99.90;;;;;;5054120;28;20178;-68
2023/01/02 02:04:39;;;;;;;9.88;4.55;;;14.10;99.90;;;;;;5036186;28;20170;-68
2023/01/02 02:07:04;;;;;;;6.57;4.00;;;14.10;99.90;;;;;;5053850;28;20194;-68
2023/01/02 02:09:42;;;;;;;8.30;4.03;;;14.10;99.90;;;;;;5036799;28;20201;-68
2023/01/02 02:12:09;;;;;;;9.90;4.20;;;14.20;99.90;;;;;;5039819;28;20177;-68
2023/01/02 02:14:34;;;;;;;9.73;3.72;;;14.20;99.90;;;;;;5040135;28;20198;-68
2023/01/02 02:17:23;;;;;;;8.63;3.78;;;14.20;99.90;;;;;;5057495;28;20181;-68
2023/01/02 02:20:09;;;;;;;10.70;3.72;;;14.10;99.90;;;;;;5041134;28;20198;-68
2023/01/02 02:22:53;;;;;;;11.30;4.38;;;14.00;99.90;;;;;;5040608;28;20197;-68
2023/01/02 02:25:46;;;;;;;7.70;3.97;;;13.90;99.90;;;;;;5058876;28;20253;-68
2023/01/02 02:28:42;;;;;;;7.63;3.55;;;13.90;99.90;;;;;;5039932;28;20304;-68
2023/01/02 02:31:17;;;;;;;12.45;4.35;;;13.80;99.90;;;;;;5058010;28;20208;-68
2023/01/02 02:33:58;;;;;;;11.80;4.65;;;13.70;99.90;;;;;;5058068;28;20191;-68
2023/01/02 02:36:59;;;;;;;9.48;4.47;;;13.70;99.90;;;;;;5056784;28;20163;-68
2023/01/02 02:39:36;;;;;;;10.73;4.10;;;13.70;99.90;;;;;;5057451;28;20195;-68
2023/01/02 02:42:27;;;;;;;8.10;4.07;;;13.70;99.90;;;;;;5057382;28;20237;-68
2023/01/02 02:45:07;;;;;;;11.30;4.10;;;13.70;99.90;;;;;;5039486;28;20171;-69
2023/01/02 02:48:19;;;;;;;6.68;4.00;;;13.70;99.90;;;;;;5057102;28;20154;-68
2023/01/02 02:51:10;;;;;;;12.13;4.15;;;13.80;99.90;;;;;;4940223;29;20249;-68
2023/01/02 02:53:49;;;;;;;9.02;3.97;;;13.80;99.90;;;;;;4956234;29;20217;-68
2023/01/02 02:56:18;;;;;;;11.77;4.35;;;14.00;99.90;;;;;;5035463;28;20601;-68
2023/01/02 02:58:44;;;;;;;9.75;3.60;;;14.00;99.90;;;;;;5056589;28;20175;-68
2023/01/02 03:01:16;;;;;;;11.43;4.28;;;14.00;99.90;;;;;;5038244;28;20209;-68
2023/01/02 03:03:42;;;;;;;10.25;3.70;;;14.00;99.90;;;;;;5056531;28;20574;-68
2023/01/02 03:06:39;;;;;;;10.27;4.45;;;13.90;99.90;;;;;;5056373;28;20213;-68
2023/01/02 03:09:29;;;;;;;12.35;4.65;;;13.90;99.90;;;;;;5047155;28;20278;-68
2023/01/02 03:11:58;;;;;;;10.02;4.50;;;14.00;99.90;;;;;;5056354;28;20627;-68
2023/01/02 03:14:39;;;;;;;7.47;4.03;;;14.00;99.90;;;;;;5056655;28;20198;-68
2023/01/02 03:17:16;;;;;;;11.05;4.10;;;14.00;99.90;;;;;;5038464;28;20230;-68
2023/01/02 03:19:49;;;;;;;11.02;3.90;;;13.90;99.90;;;;;;5056251;28;20190;-68
2023/01/02 03:22:20;;;;;;;9.80;4.28;;;14.00;99.90;;;;;;5055564;28;20213;-68
2023/01/02 03:24:50;;;;;;;11.32;3.90;;;14.10;99.90;;;;;;5056242;28;20552;-68
2023/01/02 03:27:21;;;;;;;9.82;4.53;;;14.10;99.90;;;;;;5055818;28;20202;-68
2023/01/02 03:30:17;;;;;;;7.32;3.88;;;14.20;99.90;;;;;;5038293;28;20615;-67
2023/01/02 03:33:00;;;;;;;10.55;4.05;;;14.10;99.90;;;;;;5056278;28;20203;-68
2023/01/02 03:35:41;;;;;;;7.80;4.00;;;14.10;99.90;;;;;;5055670;28;20198;-68
2023/01/02 03:38:11;;;;;;;7.45;4.25;;;14.00;99.90;;;;;;5055844;28;20185;-68
2023/01/02 03:40:43;;;;;;;10.00;4.28;;;13.90;99.90;;;;;;5055743;28;20697;-68
2023/01/02 03:43:21;;;;;;;7.22;4.35;;;13.90;99.90;;;;;;5037805;28;20264;-68
2023/01/02 03:45:55;;;;;;;7.40;4.32;;;13.80;99.90;;;;;;5055643;28;20162;-68
2023/01/02 03:48:33;;;;;;;9.15;4.22;;;13.80;99.90;;;;;;5055697;28;20212;-68
2023/01/02 03:51:01;;;;;;;10.88;4.55;;;13.70;99.90;;;;;;5056002;28;20198;-68
2023/01/02 03:53:28;;;;;;;10.43;4.60;;;13.70;99.90;;;;;;5055460;28;20663;-68
2023/01/02 03:56:00;;;;;;;10.25;4.57;;;13.70;99.90;;;;;;5055711;28;20238;-68
2023/01/02 03:58:44;;;;;;;8.00;4.13;;;13.70;99.90;;;;;;5055583;28;20163;-68
2023/01/02 04:01:45;;;;;;;11.25;4.30;;;13.70;99.90;;;;;;5055348;28;20686;-68
2023/01/02 04:04:33;;;;;;;7.30;3.95;;;13.70;99.90;;;;;;5037870;28;20655;-68
2023/01/02 04:07:03;;;;;;;6.85;3.85;;;13.70;99.90;;;;;;5055163;28;20170;-69
2023/01/02 04:09:32;;;;;;;8.88;4.10;;;13.70;99.90;;;;;;5055068;28;20186;-68
2023/01/02 04:12:10;;;;;;;5.78;3.80;;;13.70;99.90;;;;;;5037172;28;20186;-68
2023/01/02 04:14:41;;;;;;;13.65;4.93;;;13.70;99.90;;;;;;5055095;28;20166;-68
2023/01/02 04:17:09;;;;;;;10.73;4.30;;;13.70;99.90;;;;;;5054917;28;20190;-68
2023/01/02 04:19:42;;;;;;;11.68;3.90;;;13.70;99.90;;;;;;5037118;28;20198;-68
2023/01/02 04:22:13;;;;;;;8.52;4.40;;;13.80;99.90;;;;;;5054588;28;20155;-68
2023/01/02 04:24:43;;;;;;;9.23;4.38;;;13.80;99.90;;;;;;5054724;28;20162;-68
2023/01/02 04:27:17;;;;;;;6.13;4.07;;;13.80;99.90;;;;;;5054916;28;20202;-68
2023/01/02 04:29:42;;;;;;;7.13;4.15;;;13.80;99.90;;;;;;5054685;28;20190;-68
2023/01/02 04:32:11;;;;;;;7.72;4.30;;;13.80;99.90;;;;;;5054436;28;20204;-68
2023/01/02 04:34:39;;;;;;;9.52;4.07;;;13.70;99.90;;;;;;5053850;28;20185;-68
2023/01/02 04:37:05;;;;;;;7.60;3.85;;;13.60;99.90;;;;;;5054540;28;20167;-68
2023/01/02 04:39:33;;;;;;;8.95;4.25;;;13.60;99.90;;;;;;5036373;28;20202;-68
2023/01/02 04:41:58;;;;;;;12.52;4.55;;;13.50;99.90;;;;;;5036970;28;20185;-68
2023/01/02 04:44:24;;;;;;;9.20;4.85;;;13.40;99.90;;;;;;5055330;28;20171;-68
2023/01/02 04:46:50;;;;;;;12.02;4.20;;;13.40;99.90;;;;;;5054806;28;20566;-68
2023/01/02 04:49:15;;;;;;;9.98;4.40;;;13.30;99.90;;;;;;5054532;28;20285;-67
2023/01/02 04:51:41;;;;;;;9.60;4.10;;;13.30;99.90;;;;;;5054051;28;20170;-68
2023/01/02 04:54:10;;;;;;;13.93;4.68;;;13.30;99.90;;;;;;5054187;28;20202;-67
2023/01/02 04:56:35;;;;;;;7.93;4.30;;;13.20;99.90;;;;;;5053967;28;20249;-67
2023/01/02 04:59:01;;;;;;;9.55;4.70;;;13.10;99.90;;;;;;5036106;28;20199;-67
2023/01/02 05:01:27;;;;;;;7.55;4.13;;;13.10;99.90;;;;;;5054032;28;20288;-67
2023/01/02 05:03:53;;;;;;;8.68;4.50;;;13.00;99.90;;;;;;5036051;28;20232;-67
2023/01/02 05:06:18;;;;;;;10.98;3.80;;;13.00;99.90;;;;;;5054098;28;20209;-67
2023/01/02 05:08:44;;;;;;;9.82;3.92;;;13.00;99.90;;;;;;5053658;28;20261;-67
2023/01/02 05:11:13;;;;;;;8.52;3.90;;;13.00;99.90;;;;;;5054062;28;20190;-67
2023/01/02 05:13:39;;;;;;;6.55;4.07;;;13.00;99.90;;;;;;5053776;28;20229;-67
2023/01/02 05:16:05;;;;;;;7.35;4.00;;;12.90;99.90;;;;;;5053742;28;20175;-67
2023/01/02 05:18:31;;;;;;;10.15;4.63;;;12.90;99.90;;;;;;5053830;28;20291;-67
2023/01/02 05:24:10;;;;;;;5.32;4.15;;;13.00;99.90;;;;;;5019993;28;20186;-67
2023/01/02 05:26:36;;;;;;;13.77;4.38;;;13.10;99.90;;;;;;5053953;28;20249;-67
2023/01/02 05:29:02;;;;;;;12.13;4.55;;;13.10;99.90;;;;;;5053598;28;20606;-67
2023/01/02 05:31:28;;;;;;;8.80;4.18;;;13.10;99.90;;;;;;5053890;28;20178;-67
2023/01/02 05:33:56;;;;;;;8.65;4.40;;;13.10;99.90;;;;;;5053840;28;20221;-68
2023/01/02 05:36:23;;;;;;;7.75;3.95;;;13.10;99.90;;;;;;5052100;28;20190;-67
2023/01/02 05:38:49;;;;;;;10.35;4.53;;;13.10;99.90;;;;;;5053617;28;20550;-68
2023/01/02 05:41:15;;;;;;;11.25;4.15;;;13.10;99.90;;;;;;5053683;28;20246;-68
2023/01/02 05:43:41;;;;;;;13.13;4.22;;;13.10;99.90;;;;;;5052301;28;20244;-68
2023/01/02 05:46:13;;;;;;;8.45;4.15;;;13.10;99.90;;;;;;5052253;28;20175;-68
2023/01/02 05:48:40;;;;;;;7.70;3.92;;;13.10;99.90;;;;;;5053753;28;20231;-68
2023/01/02 05:51:07;;;;;;;9.88;4.32;;;13.10;99.90;;;;;;5052413;28;20693;-68
2023/01/02 05:53:34;;;;;;;8.95;4.00;;;13.20;99.90;;;;;;5053364;28;20206;-68
2023/01/02 05:56:20;;;;;;;7.45;3.90;;;13.20;99.90;;;;;;5053539;28;20162;-68
2023/01/02 05:58:47;;;;;;;8.80;4.10;;;13.20;99.90;;;;;;5053881;28;20174;-68
2023/01/02 06:01:19;;;;;;;7.78;4.10;;;13.20;99.90;;;;;;5054009;28;20257;-68
2023/01/02 06:03:46;;;;;;;7.47;4.00;;;13.20;99.90;;;;;;5052325;28;20182;-68
2023/01/02 06:06:13;;;;;;;9.80;4.30;;;13.20;99.90;;;;;;5053647;28;20194;-68
2023/01/02 06:08:39;;;;;;;7.78;3.92;;;13.20;99.90;;;;;;5052298;28;20749;-68
2023/01/02 06:11:05;;;;;;;7.47;3.85;;;13.30;99.90;;;;;;5053646;28;20294;-68
2023/01/02 06:13:32;;;;;;;8.95;4.35;;;13.30;99.90;;;;;;5053921;28;20190;-68
2023/01/02 06:16:00;;;;;;;9.23;4.00;;;13.30;99.90;;;;;;5052109;28;20674;-68
2023/01/02 06:18:26;;;;;;;6.68;4.03;;;13.30;99.90;;;;;;5053640;28;20178;-68
2023/01/02 06:20:56;;;;;;;5.85;3.80;;;13.40;99.90;;;;;;5053377;28;20191;-67
2023/01/02 06:23:21;;;;;;;6.88;3.67;;;13.50;99.90;;;;;;5053230;28;20228;-68
2023/01/02 06:25:47;;;;;;;9.95;3.97;;;13.50;99.90;;;;;;5053019;28;20166;-68
2023/01/02 06:28:13;;;;;;;13.60;4.43;;;13.50;99.90;;;;;;5053052;28;20183;-68
2023/01/02 06:30:38;;;;;;;9.27;4.63;;;13.50;99.90;;;;;;5051911;28;20218;-68
2023/01/02 06:33:04;;;;;;;7.10;3.75;;;13.50;99.90;;;;;;5053143;28;20217;-68
2023/01/02 06:35:30;;;;;;;8.88;3.67;;;13.50;99.90;;;;;;5052981;28;20681;-68
2023/01/02 06:37:56;;;;;;;11.20;4.50;;;13.50;99.90;;;;;;5053130;28;20205;-67
2023/01/02 06:40:21;;;;;;;11.50;4.18;;;13.50;99.90;;;;;;5053048;28;20554;-68
2023/01/02 06:42:47;;;;;;;8.50;3.90;;;13.50;99.90;;;;;;5053105;28;20634;-68
2023/01/02 06:45:13;;;;;;;10.43;3.95;;;13.40;99.90;;;;;;5052806;28;20179;-68
2023/01/02 06:47:39;;;;;;;13.52;4.20;;;13.40;99.90;;;;;;5052927;28;20213;-67
2023/01/02 06:50:05;;;;;;;13.45;4.07;;;13.50;99.90;;;;;;5052598;28;20206;-67
2023/01/02 06:52:30;;;;;;;6.18;3.78;;;13.40;99.90;;;;;;5052319;28;20181;-68
2023/01/02 06:54:56;;;;;;;8.95;4.40;;;13.40;99.90;;;;;;5053187;28;20174;-68
2023/01/02 06:57:22;;;;;;;13.63;4.53;;;13.40;99.90;;;;;;5054750;28;20178;-68
2023/01/02 06:59:47;;;;;;;6.75;3.85;;;13.30;99.90;;;;;;5056394;28;20668;-67
2023/01/02 07:02:14;;;;;;;14.70;4.32;;;13.30;99.90;;;;;;5056119;28;20210;-68
2023/01/02 07:04:39;;;;;;;12.77;4.28;;;13.30;99.90;;;;;;5038102;28;20186;-67
2023/01/02 07:07:07;;;;;;;8.32;4.15;;;13.30;99.90;;;;;;5056128;28;20171;-68
2023/01/02 07:09:33;;;;;;;7.13;4.22;;;13.30;99.90;;;;;;5056452;28;20187;-67
2023/01/02 07:11:59;;;;;;;12.27;4.30;;;13.20;99.90;;;;;;5055993;28;20529;-67
2023/01/02 07:14:25;;;;;;;9.48;4.85;;;13.20;99.90;;;;;;5055913;28;20568;-68
2023/01/02 07:16:51;;;;;;;10.75;4.43;;;13.20;99.90;;;;;;5055883;28;20167;-67
2023/01/02 07:19:17;;;;;;;5.95;4.00;;;13.20;99.90;;;;;;5055749;28;20197;-67
2023/01/02 07:21:43;;;;;;;9.02;4.22;;;13.30;99.90;;;;;;5055735;28;20615;-68
2023/01/02 07:24:14;;;;;;;8.27;4.03;;;13.20;99.90;;;;;;5037778;28;20265;-68
2023/01/02 07:26:40;;;;;;;13.60;4.63;;;13.20;99.90;;;;;;5056014;28;20171;-67
2023/01/02 07:29:11;;;;;;;6.15;4.00;;;13.20;99.90;;;;;;5038133;28;20552;-68
2023/01/02 07:31:40;;;;;;;12.07;4.10;;;13.20;99.90;;;;;;5038233;28;20647;-67
2023/01/02 07:34:07;;;;;;;9.00;3.97;;;13.20;99.90;;;;;;5038165;28;20210;-68
2023/01/02 07:36:33;;;;;;;5.80;3.90;;;13.10;99.90;;;;;;5038081;28;20599;-68
2023/01/02 07:38:59;;;;;;;11.18;4.18;;;13.10;99.90;;;;;;5037828;28;20178;-67
2023/01/02 07:41:25;;;;;;;8.45;4.47;;;13.10;99.90;;;;;;5038356;28;20204;-67
2023/01/02 07:43:56;;;;;;;6.80;4.20;;;13.10;99.90;;;;;;5038675;28;20262;-67
2023/01/02 07:46:23;;;;;;;8.30;4.32;;;13.10;99.90;;;;;;5056771;28;20167;-68
2023/01/02 07:48:49;;;;;;;12.43;4.05;;;13.10;99.90;;;;;;5055282;28;20189;-67
2023/01/02 07:51:15;;;;;;;10.73;4.30;;;13.00;99.90;;;;;;5055602;28;20182;-68
2023/01/02 07:53:41;;;;;;;11.13;4.75;;;13.00;99.90;;;;;;5055124;28;20658;-68
2023/01/02 07:56:07;;;;;;;8.43;4.45;;;13.00;99.90;;;;;;5037236;28;20225;-68
2023/01/02 07:58:33;;;;;;;6.63;3.70;;;13.00;99.90;;;;;;5055402;28;20666;-68
2023/01/02 08:01:09;;;;;;;8.85;4.18;;;12.90;99.90;;;;;;5037131;28;20241;-68
2023/01/02 08:03:35;;;;;;;8.98;4.10;;;12.90;99.90;;;;;;5037114;28;20174;-68
2023/01/02 08:06:03;;;;;;;9.93;4.70;;;12.80;99.90;;;;;;5054919;28;20171;-68
2023/01/02 08:08:28;;;;;;;9.50;4.20;;;12.70;99.90;;;;;;5054833;28;20576;-68
2023/01/02 08:10:54;;;;;;;8.43;4.38;;;12.70;99.90;;;;;;5054897;28;20289;-68
2023/01/02 08:13:20;;;;;;;8.35;4.13;;;12.70;99.90;;;;;;5054544;28;20210;-68
2023/01/02 08:15:46;;;;;;;10.75;4.65;;;12.60;99.90;;;;;;5054870;28;20174;-68
2023/01/02 08:18:11;;;;;;;10.82;4.68;;;12.60;99.90;;;;;;5054771;28;20257;-67
2023/01/02 08:20:37;;;;;;;12.20;4.75;;;12.50;99.90;;;;;;5036811;28;20252;-67
2023/01/02 08:23:03;;;;;;;10.55;4.45;;;12.40;99.90;;;;;;5054393;28;20181;-68
2023/01/02 08:25:29;;;;;;;7.82;4.05;;;12.30;99.90;;;;;;5054573;28;20526;-68
2023/01/02 08:27:54;;;;;;;10.77;4.63;;;12.20;99.90;;;;;;5054474;28;20253;-67
2023/01/02 08:30:20;;;;;;;8.52;4.80;;;12.20;99.90;;;;;;5054303;28;20206;-68
2023/01/02 08:32:46;;;;;;;15.35;4.80;;;12.20;99.90;;;;;;5054507;28;20198;-67
2023/01/02 08:35:11;;;;;;;7.43;4.53;;;12.10;99.90;;;;;;5043654;28;20574;-67
2023/01/02 08:37:37;;;;;;;5.97;4.60;;;12.00;99.90;;;;;;5054311;28;20576;-67
2023/01/02 08:40:04;;;;;;;10.15;4.55;;;12.00;99.90;;;;;;5054447;28;20194;-66
2023/01/02 08:42:29;;;;;;;9.88;4.65;;;12.00;99.90;;;;;;5054409;28;20185;-66
2023/01/02 08:44:55;;;;;;;13.35;4.78;;;12.00;99.90;;;;;;5054263;28;20245;-66
2023/01/02 08:47:21;;;;;;;9.23;4.57;;;11.90;99.90;;;;;;5052941;28;20546;-66
2023/01/02 08:49:47;;;;;;;9.80;4.82;;;11.90;99.90;;;;;;5052826;28;20194;-66
2023/01/02 08:52:13;;;;;;;9.45;4.32;;;11.90;99.90;;;;;;5054726;28;20167;-66
2023/01/02 08:54:38;;;;;;;8.20;4.90;;;11.80;99.90;;;;;;5055140;28;20190;-66
2023/01/02 08:57:04;;;;;;;11.95;4.47;;;11.80;99.90;;;;;;5055095;28;20309;-66
2023/01/02 08:59:30;;;;;;;5.05;4.35;;;11.70;99.90;;;;;;5054667;28;20249;-65
2023/01/02 09:01:55;;;;;;;8.27;4.60;;;11.70;99.90;;;;;;5054353;28;20213;-66
2023/01/02 09:04:21;;;;;;;8.87;4.63;;;11.70;99.90;;;;;;5054024;28;20254;-66
2023/01/02 09:06:47;;;;;;;7.20;4.47;;;11.70;99.90;;;;;;5054164;28;20170;-66
2023/01/02 09:09:15;;;;;;;7.97;3.95;;;11.70;99.90;;;;;;5053712;28;20550;-66
2023/01/02 09:11:50;;;;;;;7.78;4.50;;;11.60;99.90;;;;;;5052451;28;20182;-66
2023/01/02 09:14:17;;;;;;;6.82;4.15;;;11.60;99.90;;;;;;5053600;28;20236;-67
2023/01/02 09:16:43;;;;;;;5.43;4.20;;;11.60;99.90;;;;;;5053552;28;20258;-68
2023/01/02 09:19:09;;;;;;;7.00;4.30;;;11.60;99.90;;;;;;5052975;28;20655;-68
2023/01/02 09:21:35;;;;;;;6.80;4.50;;;11.60;99.90;;;;;;5053503;28;20174;-68
2023/01/02 09:24:01;;;;;;;8.70;4.50;;;11.60;99.90;;;;;;5053447;28;20167;-68
2023/01/02 09:26:27;;;;;;;5.40;4.15;;;11.60;99.90;;;;;;5053554;28;20546;-68
2023/01/02 09:28:52;;;;;;;8.98;4.30;;;11.60;99.90;;;;;;5052065;28;20266;-68
2023/01/02 09:31:18;;;;;;;6.87;4.40;;;11.60;99.90;;;;;;5053670;28;20210;-68
2023/01/02 09:33:46;;;;;;;9.02;4.55;;;11.60;99.90;;;;;;5053827;28;20202;-67
2023/01/02 09:36:18;;;;;;;9.68;4.43;;;11.60;99.90;;;;;;5053192;28;20556;-67
2023/01/02 09:38:50;;;;;;;6.13;4.32;;;11.60;99.90;;;;;;5035480;28;20170;-68
2023/01/02 09:41:18;;;;;;;6.20;4.20;;;11.60;99.90;;;;;;5035510;28;20169;-68
2023/01/02 09:44:15;;;;;;;5.65;3.90;;;11.70;99.90;;;;;;5053311;28;20639;-68
2023/01/02 09:46:49;;;;;;;5.22;3.83;;;11.60;99.90;;;;;;5030359;28;20224;-68
2023/01/02 09:49:20;;;;;;;5.03;3.88;;;11.70;99.90;;;;;;5053354;28;20209;-68
2023/01/02 09:51:46;;;;;;;4.68;3.95;;;11.70;99.90;;;;;;5053474;28;20166;-67
2023/01/02 09:54:22;;;;;;;5.43;3.88;;;11.80;99.90;;;;;;5052869;28;20197;-68
2023/01/02 09:57:10;;;;;;;5.13;3.72;;;11.80;99.90;;;;;;5053225;28;20159;-68
2023/01/02 09:59:59;;;;;;;4.75;3.67;;;11.80;99.90;;;;;;5035268;28;20198;-68
2023/01/02 10:02:46;;;;;;;10.30;3.90;;;11.80;99.90;;;;;;5053389;28;20608;-68
2023/01/02 10:05:18;;;;;;;3.67;3.37;;;11.70;99.90;;;;;;5053035;28;20223;-68
2023/01/02 10:08:07;;;;;;;5.07;3.15;;;11.60;99.90;;;;;;5052999;28;20272;-66
2023/01/02 10:10:40;;;;;;;8.77;3.70;;;11.60;99.90;;;;;;5053079;28;20275;-65
2023/01/02 10:13:35;;;;;;;6.72;3.05;;;11.50;99.90;;;;;;5052878;28;20261;-67
2023/01/02 10:16:04;;;;;;;3.35;3.05;;;11.60;99.90;;;;;;5018106;28;20221;-68
2023/01/02 10:18:42;;;;;;;3.03;2.83;;;11.50;99.90;;;;;;5053388;28;20229;-69
2023/01/02 10:21:44;;;;;;;3.05;2.85;;;11.50;99.90;;;;;;5053305;28;20190;-68
2023/01/02 10:24:20;;;;;;;3.13;2.80;;;11.40;99.90;;;;;;5031099;28;20210;-67
2023/01/02 10:26:51;;;;;;;5.93;3.55;;;11.40;99.90;;;;;;5035034;28;20174;-67
2023/01/02 10:29:42;;;;;;;3.53;2.80;;;11.40;99.90;;;;;;5052897;28;20194;-67
2023/01/02 10:32:16;;;;;;;3.00;2.60;;;11.30;99.90;;;;;;5054957;28;20191;-67
2023/01/02 10:35:05;;;;;;;3.20;3.00;;;11.30;99.90;;;;;;5041175;28;20205;-67
2023/01/02 10:37:31;;;;;;;3.63;3.30;;;11.30;99.90;;;;;;5055077;28;20171;-67
2023/01/02 10:39:57;;;;;;;4.33;3.47;;;11.20;99.90;;;;;;5057134;28;20186;-69
2023/01/02 10:42:24;;;;;;;4.00;3.70;;;11.10;99.90;;;;;;5057428;28;20178;-68
2023/01/02 10:44:50;;;;;;;3.70;3.40;;;11.00;99.90;;;;;;5056753;28;20174;-69
2023/01/02 10:47:35;;;;;;;4.20;3.57;;;11.00;99.90;;;;;;5055745;28;20182;-67
2023/01/02 10:50:06;;;;;;;4.20;3.80;;;10.90;99.90;;;;;;5055202;28;20239;-69
2023/01/02 10:53:18;;;;;;;4.70;3.60;;;10.90;99.90;;;;;;5056657;28;20159;-69
2023/01/02 10:55:44;;;;;;;3.60;3.30;;;10.90;99.90;;;;;;5057198;28;20170;-69
2023/01/02 10:58:28;;;;;;;3.60;3.30;;;10.90;99.90;;;;;;5057029;28;20197;-69
2023/01/02 11:01:12;;;;;;;3.60;3.30;;;10.90;99.90;;;;;;5057472;28;20197;-69
2023/01/02 11:03:39;;;;;;;4.10;3.80;;;10.90;99.90;;;;;;5056885;28;20216;-68
2023/01/02 11:06:20;;;;;;;4.63;4.23;;;10.80;99.90;;;;;;5055329;28;20185;-68
2023/01/02 11:09:02;;;;;;;4.63;4.23;;;10.70;99.90;;;;;;5056600;28;20159;-69
2023/01/02 11:11:30;;;;;;;6.90;4.90;;;10.70;99.90;;;;;;5056895;28;20181;-69
2023/01/02 11:14:05;;;;;;;5.73;5.10;;;10.60;99.90;;;;;;5056602;28;20205;-69
2023/01/02 11:16:37;;;;;;;6.10;5.50;;;10.60;99.90;;;;;;5056778;28;20188;-69
2023/01/02 11:19:06;;;;;;;6.27;5.40;;;10.70;99.90;;;;;;5056691;28;20159;-69
2023/01/02 11:21:35;;;;;;;8.13;6.43;;;10.60;99.90;;;;;;5056651;28;20167;-69
2023/01/02 11:24:10;;;;;;;7.80;6.07;;;10.60;99.90;;;;;;5056413;28;20190;-69
2023/01/02 11:26:39;;;;;;;10.53;7.30;;;10.60;99.90;;;;;;5057058;28;20158;-68
2023/01/02 11:29:35;;;;;;;6.83;6.07;;;10.50;99.90;;;;;;5056626;28;20171;-69
2023/01/02 11:32:03;;;;;;;7.90;6.83;;;10.50;99.90;;;;;;5056269;28;20174;-69
2023/01/02 11:34:35;;;;;;;9.07;6.97;;;10.40;99.90;;;;;;5056424;28;20292;-69
2023/01/02 11:37:03;;;;;;;6.67;5.97;;;10.40;99.90;;;;;;5056657;28;20173;-69
2023/01/02 11:39:32;;;;;;;8.03;6.63;;;10.40;99.90;;;;;;5056080;28;20674;-69
2023/01/02 11:45:05;;;;;;;7.93;6.53;;;10.40;99.90;;;;;;5056211;28;20166;-69
2023/01/02 11:47:42;;;;;;;7.87;7.07;;;10.30;99.90;;;;;;5038627;28;20174;-69
2023/01/02 11:50:28;;;;;;;7.53;6.73;;;10.40;99.90;;;;;;5056370;28;20259;-69
2023/01/02 11:53:10;;;;;;;6.90;6.20;;;10.50;99.90;;;;;;5055976;28;20202;-69
2023/01/02 11:55:42;;;;;;;7.30;5.90;;;10.50;99.90;;;;;;5055523;28;20154;-69
2023/01/02 11:58:29;;;;;;;9.80;6.30;;;10.50;99.90;;;;;;5037546;28;20171;-69
2023/01/02 12:01:15;;;;;;;7.37;6.07;;;10.50;99.90;;;;;;5055425;28;20206;-68
2023/01/02 12:03:41;;;;;;;6.80;6.10;;;10.40;99.90;;;;;;5055466;28;20171;-67
2023/01/02 12:06:20;;;;;;;7.33;5.97;;;10.40;99.90;;;;;;5055391;28;20182;-68
2023/01/02 12:08:57;;;;;;;6.47;5.63;;;10.40;99.90;;;;;;5055044;28;20189;-69
2023/01/02 12:11:47;;;;;;;6.93;6.23;;;10.50;99.90;;;;;;5055527;28;20634;-68
2023/01/02 12:14:23;;;;;;;7.03;5.80;;;10.50;99.90;;;;;;5055211;28;20197;-68
2023/01/02 12:16:57;;;;;;;6.87;6.07;;;10.60;99.90;;;;;;5055123;28;20180;-69
2023/01/02 12:19:44;;;;;;;7.10;6.37;;;10.60;99.90;;;;;;5037212;28;20202;-69
2023/01/02 12:22:45;;;;;;;8.40;6.90;;;10.60;99.90;;;;;;5054900;28;20158;-69
2023/01/02 12:25:34;;;;;;;8.77;6.83;;;10.60;99.90;;;;;;4938625;29;20193;-68
2023/01/02 12:28:24;;;;;;;8.97;7.10;;;10.50;99.90;;;;;;5032817;28;20190;-69
2023/01/02 12:31:14;;;;;;;8.27;7.17;;;10.50;99.90;;;;;;5055088;28;20210;-69
2023/01/02 12:34:11;;;;;;;7.60;6.80;;;10.60;99.90;;;;;;4987133;28;20298;-69
2023/01/02 12:36:42;;;;;;;9.37;7.27;;;10.60;99.90;;;;;;5055283;28;20167;-69
2023/01/02 12:39:48;;;;;;;7.47;6.67;;;10.60;99.90;;;;;;5054837;28;20178;-69
2023/01/02 12:42:26;;;;;;;8.50;7.00;;;10.60;99.90;;;;;;5054928;28;20170;-68
2023/01/02 12:44:55;;;;;;;8.63;7.33;;;10.70;99.90;;;;;;5054184;28;20194;-67
2023/01/02 12:47:58;;;;;;;10.20;7.40;;;10.70;99.90;;;;;;5036162;28;20213;-71
2023/01/02 12:50:27;;;;;;;9.20;6.83;;;10.60;99.90;;;;;;5054462;28;20269;-70
2023/01/02 12:52:55;;;;;;;10.17;7.00;;;10.60;99.90;;;;;;5054180;28;20201;-70
2023/01/02 12:55:39;;;;;;;10.07;8.23;;;10.60;99.90;;;;;;5054228;28;20170;-75
2023/01/02 12:58:23;;;;;;;7.87;7.03;;;10.60;99.90;;;;;;5054961;28;20181;-73
2023/01/02 13:00:52;;;;;;;9.03;6.87;;;10.70;99.90;;;;;;5037054;28;20205;-75
2023/01/02 13:03:36;;;;;;;9.30;7.83;;;10.60;99.90;;;;;;5037406;28;20626;-71
2023/01/02 13:06:02;;;;;;;8.27;7.10;;;10.60;99.90;;;;;;5054341;28;20167;-75
2023/01/02 13:08:42;;;;;;;12.80;8.13;;;10.60;99.90;;;;;;5036811;28;20269;-74
2023/01/02 13:11:09;;;;;;;8.03;6.17;;;10.50;99.90;;;;;;5037097;28;20194;-67
2023/01/02 13:13:36;;;;;;;8.13;6.53;;;10.50;99.90;;;;;;5053748;28;20229;-68